createdAt,value
2017-02-24T00:00:12.432Z,19.53
2017-02-24T00:01:13.059Z,19.52
2017-02-24T00:02:12.042Z,20.00
2017-02-24T00:03:12.763Z,20.05
2017-02-24T00:04:14.489Z,19.56
2017-02-24T00:05:12.569Z,19.54
2017-02-24T00:06:14.525Z,19.51
2017-02-24T00:07:12.503Z,19.51
2017-02-24T00:08:11.083Z,19.51
2017-02-24T00:09:13.261Z,19.51
2017-02-24T00:10:12.331Z,19.51
2017-02-24T00:11:12.538Z,19.51
2017-02-24T00:12:11.754Z,19.50
2017-02-24T00:13:13.165Z,19.51
2017-02-24T00:14:12.417Z,19.50
2017-02-24T00:15:14.101Z,19.51
2017-02-24T00:16:12.222Z,19.51
2017-02-24T00:17:13.044Z,19.51
2017-02-24T00:18:11.988Z,19.51
2017-02-24T00:19:12.651Z,19.50
2017-02-24T00:20:12.216Z,19.55
2017-02-24T00:21:12.444Z,19.50
2017-02-24T00:22:12.618Z,19.51
2017-02-24T00:23:12.348Z,19.57
2017-02-24T00:24:12.641Z,19.50
2017-02-24T00:25:11.937Z,19.51
2017-02-24T00:26:12.457Z,19.55
2017-02-24T00:27:13.047Z,19.54
2017-02-24T00:28:13.101Z,19.50
2017-02-24T00:29:12.148Z,19.50
2017-02-24T00:30:13.804Z,19.50
2017-02-24T00:31:11.943Z,19.51
2017-02-24T00:32:11.971Z,19.50
2017-02-24T00:33:12.028Z,19.50
2017-02-24T00:34:13.915Z,19.49
2017-02-24T00:35:12.566Z,19.51
2017-02-24T00:36:12.026Z,19.53
2017-02-24T00:37:12.150Z,19.50
2017-02-24T00:38:12.105Z,19.51
2017-02-24T00:39:12.338Z,19.51
2017-02-24T00:40:12.235Z,19.51
2017-02-24T00:41:12.716Z,19.55
2017-02-24T00:42:13.624Z,19.51
2017-02-24T00:43:13.142Z,19.50
2017-02-24T00:44:10.333Z,19.50
2017-02-24T00:45:13.069Z,19.51
2017-02-24T00:46:12.123Z,19.51
2017-02-24T00:47:12.311Z,19.51
2017-02-24T00:48:12.908Z,19.51
2017-02-24T00:49:10.749Z,19.51
2017-02-24T00:50:13.166Z,20.02
2017-02-24T00:51:12.211Z,20.07
2017-02-24T00:52:11.271Z,20.08
2017-02-24T00:53:12.079Z,19.76
2017-02-24T00:54:13.118Z,19.59
2017-02-24T00:55:13.005Z,19.55
2017-02-24T00:56:12.707Z,19.54
2017-02-24T00:57:11.984Z,19.53
2017-02-24T00:58:13.384Z,19.52
2017-02-24T00:59:12.525Z,19.53
2017-02-24T01:00:13.235Z,19.54
2017-02-24T01:01:12.753Z,19.57
2017-02-24T01:02:14.809Z,19.53
2017-02-24T01:03:12.316Z,19.52
2017-02-24T01:04:13.727Z,19.55
2017-02-24T01:05:14.768Z,19.52
2017-02-24T01:06:15.410Z,19.52
2017-02-24T01:07:14.217Z,19.53
2017-02-24T01:08:13.999Z,19.52
2017-02-24T01:09:14.675Z,19.53
2017-02-24T01:10:13.452Z,19.60
2017-02-24T01:11:14.489Z,20.04
2017-02-24T01:12:13.146Z,20.08
2017-02-24T01:13:13.951Z,20.12
2017-02-24T01:14:12.423Z,20.12
2017-02-24T01:15:12.595Z,20.14
2017-02-24T01:16:14.408Z,20.14
2017-02-24T01:17:12.091Z,20.14
2017-02-24T01:18:14.098Z,20.15
2017-02-24T01:19:14.267Z,20.15
2017-02-24T01:20:14.202Z,20.16
2017-02-24T01:21:13.749Z,20.15
2017-02-24T01:22:14.324Z,20.16
2017-02-24T01:23:10.530Z,20.17
2017-02-24T01:24:15.378Z,20.15
2017-02-24T01:25:12.008Z,19.83
2017-02-24T01:26:13.753Z,19.65
2017-02-24T01:27:13.065Z,19.61
2017-02-24T01:28:16.750Z,19.58
2017-02-24T01:29:13.598Z,19.56
2017-02-24T01:30:12.667Z,19.63
2017-02-24T01:31:13.315Z,19.55
2017-02-24T01:32:12.867Z,19.55
2017-02-24T01:33:12.457Z,19.54
2017-02-24T01:34:13.060Z,19.54
2017-02-24T01:35:13.907Z,19.54
2017-02-24T01:36:13.716Z,19.54
2017-02-24T01:37:12.855Z,19.54
2017-02-24T01:38:13.754Z,19.56
2017-02-24T01:39:12.851Z,19.56
2017-02-24T01:40:11.914Z,19.53
2017-02-24T01:41:13.120Z,19.54
2017-02-24T01:42:12.636Z,19.59
2017-02-24T01:43:13.195Z,19.54
2017-02-24T01:44:13.075Z,19.54
2017-02-24T01:45:12.929Z,19.54
2017-02-24T01:46:12.556Z,19.59
2017-02-24T01:47:11.591Z,19.53
2017-02-24T01:48:12.539Z,19.54
2017-02-24T01:49:12.809Z,19.55
2017-02-24T01:50:14.529Z,19.54
2017-02-24T01:51:16.029Z,19.53
2017-02-24T01:52:12.846Z,19.53
2017-02-24T01:53:12.576Z,19.53
2017-02-24T01:54:12.576Z,19.53
2017-02-24T01:55:11.734Z,19.54
2017-02-24T01:56:10.613Z,19.53
2017-02-24T01:57:12.875Z,19.54
2017-02-24T01:58:11.846Z,19.53
2017-02-24T01:59:13.176Z,19.53
2017-02-24T02:00:09.823Z,19.53
2017-02-24T02:01:12.027Z,19.54
2017-02-24T02:02:13.168Z,19.54
2017-02-24T02:03:10.722Z,19.54
2017-02-24T02:04:12.743Z,19.58
2017-02-24T02:05:11.948Z,19.54
2017-02-24T02:06:13.974Z,19.54
2017-02-24T02:07:11.993Z,19.53
2017-02-24T02:08:12.229Z,19.53
2017-02-24T02:09:12.415Z,19.53
2017-02-24T02:10:12.585Z,19.53
2017-02-24T02:11:10.633Z,19.52
2017-02-24T02:12:11.972Z,19.53
2017-02-24T02:13:13.664Z,19.55
2017-02-24T02:14:11.348Z,19.53
2017-02-24T02:15:12.324Z,20.03
2017-02-24T02:16:12.825Z,20.09
2017-02-24T02:17:12.644Z,20.05
2017-02-24T02:18:12.563Z,20.11
2017-02-24T02:19:13.209Z,19.80
2017-02-24T02:20:12.348Z,19.63
2017-02-24T02:21:12.884Z,19.66
2017-02-24T02:22:12.757Z,20.07
2017-02-24T02:23:12.687Z,20.10
2017-02-24T02:24:14.688Z,19.76
2017-02-24T02:25:12.325Z,19.64
2017-02-24T02:26:14.013Z,19.57
2017-02-24T02:27:12.638Z,19.55
2017-02-24T02:28:14.470Z,19.54
2017-02-24T02:29:13.126Z,19.53
2017-02-24T02:30:12.212Z,19.52
2017-02-24T02:31:12.365Z,19.52
2017-02-24T02:32:13.602Z,19.56
2017-02-24T02:33:11.767Z,19.52
2017-02-24T02:34:09.016Z,19.52
2017-02-24T02:35:14.490Z,19.51
2017-02-24T02:36:13.185Z,19.51
2017-02-24T02:37:12.866Z,19.52
2017-02-24T02:38:12.542Z,19.51
2017-02-24T02:39:12.308Z,19.56
2017-02-24T02:40:12.569Z,19.51
2017-02-24T02:41:13.115Z,19.52
2017-02-24T02:42:13.542Z,19.51
2017-02-24T02:43:13.576Z,19.51
2017-02-24T02:44:09.896Z,19.51
2017-02-24T02:45:12.778Z,19.51
2017-02-24T02:46:10.745Z,19.51
2017-02-24T02:47:12.495Z,20.02
2017-02-24T02:48:13.722Z,20.07
2017-02-24T02:49:14.023Z,20.09
2017-02-24T02:50:15.097Z,20.10
2017-02-24T02:51:12.423Z,20.11
2017-02-24T02:52:13.931Z,19.76
2017-02-24T02:53:12.717Z,19.61
2017-02-24T02:54:12.566Z,19.64
2017-02-24T02:55:12.408Z,19.55
2017-02-24T02:56:12.591Z,19.53
2017-02-24T02:57:11.767Z,19.52
2017-02-24T02:58:13.442Z,19.52
2017-02-24T02:59:13.067Z,19.51
2017-02-24T03:00:12.737Z,19.51
2017-02-24T03:01:13.702Z,19.51
2017-02-24T03:02:12.984Z,19.52
2017-02-24T03:03:12.762Z,19.50
2017-02-24T03:04:12.541Z,19.51
2017-02-24T03:05:13.588Z,19.50
2017-02-24T03:06:10.667Z,19.50
2017-02-24T03:07:13.147Z,19.51
2017-02-24T03:08:13.373Z,19.53
2017-02-24T03:09:13.393Z,19.56
2017-02-24T03:10:15.087Z,19.50
2017-02-24T03:11:12.191Z,19.51
2017-02-24T03:12:12.865Z,19.55
2017-02-24T03:13:11.779Z,19.50
2017-02-24T03:14:12.977Z,19.51
2017-02-24T03:15:13.289Z,19.52
2017-02-24T03:16:13.207Z,19.50
2017-02-24T03:17:10.969Z,19.51
2017-02-24T03:18:13.220Z,20.01
2017-02-24T03:19:13.287Z,20.06
2017-02-24T03:20:11.036Z,20.08
2017-02-24T03:21:12.276Z,20.09
2017-02-24T03:22:12.773Z,20.10
2017-02-24T03:23:13.567Z,20.12
2017-02-24T03:24:12.409Z,20.12
2017-02-24T03:25:12.533Z,20.12
2017-02-24T03:26:13.854Z,19.64
2017-02-24T03:27:11.937Z,19.56
2017-02-24T03:28:13.651Z,19.61
2017-02-24T03:29:13.119Z,19.53
2017-02-24T03:30:12.145Z,19.53
2017-02-24T03:31:12.747Z,19.52
2017-02-24T03:32:12.526Z,19.52
2017-02-24T03:33:13.180Z,19.51
2017-02-24T03:34:13.357Z,19.54
2017-02-24T03:35:10.555Z,19.51
2017-02-24T03:36:12.599Z,19.51
2017-02-24T03:37:12.623Z,19.51
2017-02-24T03:38:12.791Z,19.51
2017-02-24T03:39:12.076Z,19.55
2017-02-24T03:40:12.081Z,19.51
2017-02-24T03:41:12.024Z,19.51
2017-02-24T03:42:12.031Z,19.50
2017-02-24T03:43:13.757Z,19.51
2017-02-24T03:44:12.677Z,19.51
2017-02-24T03:45:12.395Z,19.51
2017-02-24T03:46:13.194Z,19.51
2017-02-24T03:47:12.850Z,19.50
2017-02-24T03:48:13.185Z,19.53
2017-02-24T03:49:13.726Z,19.51
2017-02-24T03:50:12.320Z,19.54
2017-02-24T03:51:12.425Z,19.51
2017-02-24T03:52:11.201Z,19.50
2017-02-24T03:53:13.977Z,19.50
2017-02-24T03:54:13.114Z,19.51
2017-02-24T03:55:09.837Z,19.50
2017-02-24T03:56:10.404Z,19.50
2017-02-24T03:57:12.207Z,19.51
2017-02-24T03:58:14.160Z,19.52
2017-02-24T03:59:12.278Z,19.51
2017-02-24T04:00:13.087Z,19.53
2017-02-24T04:01:12.988Z,19.51
2017-02-24T04:02:13.530Z,19.50
2017-02-24T04:03:13.688Z,19.51
2017-02-24T04:04:12.632Z,19.51
2017-02-24T04:05:12.341Z,19.53
2017-02-24T04:06:12.495Z,19.51
2017-02-24T04:07:13.224Z,19.52
2017-02-24T04:08:13.316Z,19.51
2017-02-24T04:09:11.428Z,19.51
2017-02-24T04:10:12.645Z,19.51
2017-02-24T04:11:12.511Z,19.51
2017-02-24T04:12:12.645Z,19.51
2017-02-24T04:13:14.637Z,19.51
2017-02-24T04:14:11.618Z,19.51
2017-02-24T04:15:12.429Z,19.56
2017-02-24T04:16:12.129Z,19.51
2017-02-24T04:17:14.202Z,19.52
2017-02-24T04:18:13.433Z,19.51
2017-02-24T04:19:12.630Z,19.52
2017-02-24T04:20:13.238Z,19.52
2017-02-24T04:21:13.241Z,19.51
2017-02-24T04:22:13.089Z,19.52
2017-02-24T04:23:10.823Z,19.52
2017-02-24T04:24:14.056Z,19.52
2017-02-24T04:25:11.974Z,19.52
2017-02-24T04:26:12.249Z,19.52
2017-02-24T04:27:12.930Z,19.58
2017-02-24T04:28:13.995Z,19.53
2017-02-24T04:29:12.000Z,19.54
2017-02-24T04:30:12.085Z,19.54
2017-02-24T04:31:13.785Z,19.53
2017-02-24T04:32:12.505Z,19.53
2017-02-24T04:33:14.128Z,19.53
2017-02-24T04:34:12.826Z,19.53
2017-02-24T04:35:12.661Z,19.53
2017-02-24T04:36:10.363Z,19.52
2017-02-24T04:37:10.656Z,20.02
2017-02-24T04:38:12.601Z,20.07
2017-02-24T04:39:11.703Z,20.10
2017-02-24T04:40:11.760Z,20.11
2017-02-24T04:41:12.598Z,20.11
2017-02-24T04:42:12.177Z,20.12
2017-02-24T04:43:11.087Z,20.12
2017-02-24T04:44:11.796Z,20.12
2017-02-24T04:45:13.738Z,19.61
2017-02-24T04:46:11.766Z,19.58
2017-02-24T04:47:12.890Z,19.54
2017-02-24T04:48:12.025Z,19.53
2017-02-24T04:49:13.744Z,19.52
2017-02-24T04:50:12.516Z,19.52
2017-02-24T04:51:12.981Z,19.55
2017-02-24T04:52:12.594Z,20.01
2017-02-24T04:53:12.390Z,20.06
2017-02-24T04:54:12.692Z,19.58
2017-02-24T04:55:12.622Z,19.56
2017-02-24T04:56:10.215Z,19.52
2017-02-24T04:57:12.412Z,19.52
2017-02-24T04:58:13.438Z,19.51
2017-02-24T04:59:12.559Z,19.51
2017-02-24T05:00:12.853Z,19.55
2017-02-24T05:01:11.051Z,19.49
2017-02-24T05:02:12.185Z,20.01
2017-02-24T05:03:12.243Z,20.06
2017-02-24T05:04:13.593Z,20.08
2017-02-24T05:05:11.671Z,20.09
2017-02-24T05:06:11.744Z,20.09
2017-02-24T05:07:10.455Z,20.11
2017-02-24T05:08:12.330Z,19.83
2017-02-24T05:09:12.543Z,19.61
2017-02-24T05:10:11.223Z,19.55
2017-02-24T05:11:13.528Z,19.54
2017-02-24T05:12:13.281Z,19.52
2017-02-24T05:13:13.442Z,19.52
2017-02-24T05:14:12.582Z,19.51
2017-02-24T05:15:12.381Z,19.51
2017-02-24T05:16:13.950Z,19.51
2017-02-24T05:17:12.014Z,19.51
2017-02-24T05:18:12.491Z,19.57
2017-02-24T05:19:13.141Z,19.51
2017-02-24T05:20:12.658Z,19.55
2017-02-24T05:21:11.997Z,19.51
2017-02-24T05:22:12.346Z,19.51
2017-02-24T05:23:09.840Z,19.50
2017-02-24T05:24:12.436Z,19.51
2017-02-24T05:25:15.082Z,19.51
2017-02-24T05:26:13.158Z,19.52
2017-02-24T05:27:12.444Z,19.51
2017-02-24T05:28:13.550Z,19.51
2017-02-24T05:29:10.567Z,19.51
2017-02-24T05:30:12.570Z,20.02
2017-02-24T05:31:12.547Z,19.71
2017-02-24T05:32:11.780Z,19.58
2017-02-24T05:33:11.861Z,19.54
2017-02-24T05:34:11.949Z,19.53
2017-02-24T05:35:12.582Z,19.53
2017-02-24T05:36:14.256Z,19.52
2017-02-24T05:37:13.060Z,19.52
2017-02-24T05:38:12.009Z,19.52
2017-02-24T05:39:12.035Z,19.52
2017-02-24T05:40:12.788Z,19.52
2017-02-24T05:41:12.011Z,19.52
2017-02-24T05:42:13.782Z,19.52
2017-02-24T05:43:13.577Z,19.58
2017-02-24T05:44:11.737Z,19.51
2017-02-24T05:45:14.409Z,19.51
2017-02-24T05:46:13.149Z,19.58
2017-02-24T05:47:13.112Z,19.51
2017-02-24T05:48:13.937Z,19.52
2017-02-24T05:49:12.759Z,19.50
2017-02-24T05:50:11.561Z,19.50
2017-02-24T05:51:13.631Z,20.02
2017-02-24T05:52:12.120Z,20.07
2017-02-24T05:53:13.131Z,19.76
2017-02-24T05:54:12.688Z,19.60
2017-02-24T05:55:12.002Z,19.56
2017-02-24T05:56:12.998Z,19.54
2017-02-24T05:57:12.182Z,19.54
2017-02-24T05:58:13.843Z,19.53
2017-02-24T05:59:13.608Z,19.52
2017-02-24T06:00:11.668Z,19.53
2017-02-24T06:01:13.116Z,19.53
2017-02-24T06:02:12.998Z,19.52
2017-02-24T06:03:13.758Z,19.52
2017-02-24T06:04:12.010Z,19.51
2017-02-24T06:05:12.559Z,19.55
2017-02-24T06:06:13.317Z,19.51
2017-02-24T06:07:12.983Z,19.58
2017-02-24T06:08:14.733Z,20.01
2017-02-24T06:09:12.598Z,20.07
2017-02-24T06:10:13.620Z,20.08
2017-02-24T06:11:11.657Z,20.11
2017-02-24T06:12:11.689Z,20.12
2017-02-24T06:13:13.687Z,19.61
2017-02-24T06:14:12.455Z,19.57
2017-02-24T06:15:13.242Z,19.55
2017-02-24T06:16:13.755Z,19.54
2017-02-24T06:17:10.598Z,19.53
2017-02-24T06:18:12.940Z,19.59
2017-02-24T06:19:12.069Z,19.53
2017-02-24T06:20:12.286Z,19.52
2017-02-24T06:21:13.018Z,19.52
2017-02-24T06:22:12.594Z,19.56
2017-02-24T06:23:12.154Z,19.55
2017-02-24T06:24:12.849Z,19.51
2017-02-24T06:25:12.008Z,19.50
2017-02-24T06:26:12.216Z,19.51
2017-02-24T06:27:13.192Z,19.51
2017-02-24T06:28:13.609Z,19.51
2017-02-24T06:29:11.790Z,19.52
2017-02-24T06:30:12.885Z,19.52
2017-02-24T06:31:12.761Z,19.50
2017-02-24T06:32:13.916Z,19.51
2017-02-24T06:33:12.122Z,19.51
2017-02-24T06:34:13.769Z,19.51
2017-02-24T06:35:11.755Z,19.51
2017-02-24T06:36:11.852Z,19.51
2017-02-24T06:37:12.623Z,19.55
2017-02-24T06:38:11.827Z,19.51
2017-02-24T06:39:13.335Z,19.51
2017-02-24T06:40:15.374Z,19.51
2017-02-24T06:41:11.545Z,19.51
2017-02-24T06:42:11.744Z,20.02
2017-02-24T06:43:11.517Z,20.08
2017-02-24T06:44:12.197Z,19.59
2017-02-24T06:45:12.412Z,19.55
2017-02-24T06:46:12.347Z,19.54
2017-02-24T06:47:12.400Z,19.53
2017-02-24T06:50:31.744Z,19.52
2017-02-24T06:51:26.192Z,19.52
2017-02-24T06:52:27.170Z,19.52
2017-02-24T06:53:37.209Z,19.52
2017-02-24T06:54:27.000Z,19.51
2017-02-24T06:55:27.940Z,19.52
2017-02-24T06:56:26.850Z,19.52
2017-02-24T06:57:32.551Z,19.52
2017-02-24T06:58:26.559Z,19.51
2017-02-24T06:59:24.912Z,19.52
2017-02-24T07:00:42.815Z,19.56
2017-02-24T07:01:32.857Z,19.53
2017-02-24T07:02:36.171Z,19.52
2017-02-24T07:03:28.889Z,19.52
2017-02-24T07:04:33.721Z,19.57
2017-02-24T07:05:38.491Z,19.52
2017-02-24T07:06:40.068Z,19.52
2017-02-24T07:07:29.785Z,19.52
2017-02-24T07:08:27.182Z,19.52
2017-02-24T07:09:37.951Z,19.52
2017-02-24T07:10:22.614Z,19.54
2017-02-24T07:11:28.347Z,19.52
2017-02-24T07:12:26.108Z,19.52
2017-02-24T07:13:32.368Z,19.52
2017-02-24T07:14:22.074Z,19.55
2017-02-24T07:15:21.735Z,19.52
2017-02-24T07:16:30.035Z,19.52
2017-02-24T07:17:29.485Z,19.52
2017-02-24T07:18:28.217Z,19.52
2017-02-24T07:19:39.714Z,19.51
2017-02-24T07:20:42.019Z,19.52
2017-02-24T07:21:33.638Z,19.52
2017-02-24T07:22:44.245Z,19.50
2017-02-24T07:23:39.277Z,19.51
2017-02-24T07:24:28.516Z,19.51
2017-02-24T07:25:34.063Z,19.52
2017-02-24T07:26:46.754Z,19.52
2017-02-24T07:27:35.868Z,19.52
2017-02-24T07:28:38.179Z,19.53
2017-02-24T07:29:38.447Z,19.53
2017-02-24T07:30:38.623Z,19.52
2017-02-24T07:31:32.965Z,19.52
2017-02-24T07:32:37.947Z,19.54
2017-02-24T07:33:34.037Z,19.53
2017-02-24T07:34:32.045Z,19.53
2017-02-24T07:35:32.099Z,19.53
2017-02-24T07:36:43.546Z,19.53
2017-02-24T07:37:43.683Z,19.53
2017-02-24T07:38:33.614Z,19.53
2017-02-24T07:39:40.168Z,19.53
2017-02-24T07:40:43.891Z,19.54
2017-02-24T07:41:33.834Z,19.24
2017-02-24T07:42:46.434Z,18.83
2017-02-24T07:43:37.920Z,18.55
2017-02-24T07:44:39.461Z,18.31
2017-02-24T07:45:42.704Z,18.10
2017-02-24T07:46:38.027Z,17.93
2017-02-24T07:47:34.096Z,17.69
2017-02-24T07:48:34.657Z,17.46
2017-02-24T07:49:42.090Z,17.22
2017-02-24T07:50:43.582Z,17.11
2017-02-24T07:51:46.926Z,16.95
2017-02-24T07:52:38.885Z,16.86
2017-02-24T07:53:46.082Z,16.97
2017-02-24T07:54:41.227Z,17.13
2017-02-24T07:55:35.405Z,17.21
2017-02-24T07:56:33.017Z,17.37
2017-02-24T07:57:37.564Z,17.54
2017-02-24T07:58:38.280Z,17.71
2017-02-24T07:59:32.758Z,17.85
2017-02-24T08:00:39.188Z,17.99
2017-02-24T08:01:40.543Z,18.10
2017-02-24T08:02:40.263Z,18.20
2017-02-24T08:03:34.597Z,18.26
2017-02-24T08:04:39.580Z,18.33
2017-02-24T08:05:34.078Z,18.40
2017-02-24T08:06:34.193Z,18.45
2017-02-24T08:07:37.691Z,18.51
2017-02-24T08:08:36.280Z,18.54
2017-02-24T08:09:34.068Z,18.56
2017-02-24T08:10:36.095Z,18.60
2017-02-24T08:11:38.841Z,18.63
2017-02-24T08:12:38.885Z,18.65
2017-02-24T08:13:48.351Z,18.67
2017-02-24T08:14:38.412Z,18.69
2017-02-24T08:15:43.027Z,18.70
2017-02-24T08:16:33.492Z,18.72
2017-02-24T08:17:45.512Z,18.74
2017-02-24T08:18:39.265Z,18.76
2017-02-24T08:19:42.609Z,18.77
2017-02-24T08:20:38.020Z,18.77
2017-02-24T08:21:42.628Z,19.25
2017-02-24T08:22:42.183Z,19.28
2017-02-24T08:23:34.572Z,19.29
2017-02-24T08:24:38.541Z,19.32
2017-02-24T08:25:39.306Z,19.32
2017-02-24T08:26:34.420Z,19.35
2017-02-24T08:27:34.495Z,19.37
2017-02-24T08:28:57.170Z,19.38
2017-02-24T08:29:36.056Z,19.40
2017-02-24T08:30:38.971Z,19.42
2017-02-24T08:31:33.127Z,19.43
2017-02-24T08:32:38.640Z,19.46
2017-02-24T08:33:38.134Z,19.46
2017-02-24T08:34:42.209Z,18.98
2017-02-24T08:35:40.812Z,18.95
2017-02-24T08:36:43.905Z,18.93
2017-02-24T08:37:34.472Z,18.94
2017-02-24T08:38:33.946Z,18.92
2017-02-24T08:39:34.318Z,18.94
2017-02-24T08:40:33.844Z,19.41
2017-02-24T08:41:37.835Z,19.44
2017-02-24T08:42:34.297Z,19.16
2017-02-24T08:43:44.082Z,19.01
2017-02-24T08:44:29.097Z,18.96
2017-02-24T08:45:47.829Z,18.96
2017-02-24T08:46:43.387Z,18.96
2017-02-24T08:47:32.516Z,18.96
2017-02-24T08:48:38.266Z,18.97
2017-02-24T08:49:39.108Z,18.98
2017-02-24T08:50:43.917Z,18.99
2017-02-24T08:51:38.142Z,19.00
2017-02-24T08:52:33.163Z,19.01
2017-02-24T08:53:37.783Z,19.00
2017-02-24T08:54:41.200Z,19.02
2017-02-24T08:55:36.971Z,19.02
2017-02-24T08:56:43.837Z,19.01
2017-02-24T08:57:34.682Z,19.04
2017-02-24T08:58:38.846Z,19.04
2017-02-24T08:59:34.002Z,19.05
2017-02-24T09:00:33.839Z,19.05
2017-02-24T09:01:42.067Z,19.06
2017-02-24T09:02:33.660Z,19.11
2017-02-24T09:03:46.618Z,19.07
2017-02-24T09:04:46.087Z,19.06
2017-02-24T09:05:42.302Z,19.08
2017-02-24T09:06:39.181Z,19.08
2017-02-24T09:07:34.348Z,19.09
2017-02-24T09:08:42.139Z,19.08
2017-02-24T09:09:34.384Z,19.10
2017-02-24T09:10:34.678Z,19.10
2017-02-24T09:11:38.453Z,19.11
2017-02-24T09:12:45.253Z,19.11
2017-02-24T09:13:32.356Z,19.11
2017-02-24T09:14:39.213Z,19.11
2017-02-24T09:15:47.986Z,19.12
2017-02-24T09:16:43.196Z,19.12
2017-02-24T09:17:36.712Z,19.13
2017-02-24T09:18:38.933Z,19.12
2017-02-24T09:19:39.181Z,19.13
2017-02-24T09:20:34.052Z,19.18
2017-02-24T09:21:38.839Z,19.13
2017-02-24T09:22:48.938Z,19.14
2017-02-24T09:23:44.959Z,19.14
2017-02-24T09:24:44.428Z,19.19
2017-02-24T09:25:34.719Z,19.15
2017-02-24T09:26:39.452Z,19.15
2017-02-24T09:27:39.683Z,19.16
2017-02-24T09:28:42.281Z,19.15
2017-02-24T09:29:39.302Z,19.16
2017-02-24T09:30:38.917Z,19.20
2017-02-24T09:31:33.006Z,19.17
2017-02-24T09:32:48.378Z,19.16
2017-02-24T09:33:34.409Z,19.17
2017-02-24T09:34:39.127Z,19.17
2017-02-24T09:35:42.994Z,19.17
2017-02-24T09:36:33.990Z,19.17
2017-02-24T09:37:33.927Z,19.17
2017-02-24T09:38:42.856Z,19.17
2017-02-24T09:39:34.210Z,19.17
2017-02-24T09:40:34.702Z,19.18
2017-02-24T09:41:44.007Z,19.18
2017-02-24T09:42:33.759Z,19.21
2017-02-24T09:43:43.137Z,19.70
2017-02-24T09:44:35.752Z,19.74
2017-02-24T09:45:45.159Z,19.77
2017-02-24T09:46:35.066Z,19.78
2017-02-24T09:47:34.063Z,19.78
2017-02-24T09:48:33.837Z,19.43
2017-02-24T09:49:45.341Z,19.27
2017-02-24T09:50:38.049Z,19.28
2017-02-24T09:51:40.745Z,19.21
2017-02-24T09:52:43.804Z,19.20
2017-02-24T09:53:29.233Z,19.21
2017-02-24T09:54:39.416Z,19.22
2017-02-24T09:55:45.079Z,19.21
2017-02-24T09:56:43.810Z,19.23
2017-02-24T09:57:43.127Z,19.22
2017-02-24T09:58:38.615Z,19.21
2017-02-24T09:59:42.398Z,19.20
2017-02-24T10:00:33.812Z,19.21
2017-02-24T10:01:34.222Z,19.20
2017-02-24T10:02:33.299Z,19.21
2017-02-24T10:03:38.611Z,19.26
2017-02-24T10:04:34.034Z,19.21
2017-02-24T10:05:34.777Z,19.21
2017-02-24T10:06:34.447Z,19.22
2017-02-24T10:07:28.500Z,19.23
2017-02-24T10:08:46.595Z,19.23
2017-02-24T10:09:37.448Z,19.23
2017-02-24T10:10:43.851Z,19.23
2017-02-24T10:11:35.832Z,19.24
2017-02-24T10:12:28.261Z,19.24
2017-02-24T10:13:43.704Z,19.24
2017-02-24T10:14:34.243Z,19.25
2017-02-24T10:16:35.552Z,19.25
2017-02-24T10:17:34.045Z,19.26
2017-02-24T10:18:28.097Z,19.26
2017-02-24T10:19:34.442Z,19.26
2017-02-24T10:20:46.207Z,19.27
2017-02-24T10:21:39.787Z,19.30
2017-02-24T10:22:40.104Z,19.27
2017-02-24T10:23:39.314Z,19.27
2017-02-24T10:24:34.414Z,19.24
2017-02-24T10:25:42.884Z,19.27
2017-02-24T10:26:35.223Z,19.27
2017-02-24T10:27:43.732Z,19.27
2017-02-24T10:28:42.926Z,19.27
2017-02-24T10:29:43.675Z,19.28
2017-02-24T10:30:43.545Z,19.27
2017-02-24T10:31:28.431Z,19.27
2017-02-24T10:32:41.785Z,19.27
2017-02-24T10:33:42.599Z,19.27
2017-02-24T10:34:43.851Z,19.28
2017-02-24T10:35:43.222Z,19.28
2017-02-24T10:36:33.738Z,19.27
2017-02-24T10:37:48.177Z,19.80
2017-02-24T10:38:36.074Z,19.84
2017-02-24T10:39:40.554Z,19.87
2017-02-24T10:40:34.417Z,19.88
2017-02-24T10:41:44.284Z,19.36
2017-02-24T10:42:34.413Z,19.33
2017-02-24T10:43:38.822Z,19.32
2017-02-24T10:44:38.996Z,19.31
2017-02-24T10:45:32.701Z,19.30
2017-02-24T10:46:37.800Z,19.30
2017-02-24T10:47:42.108Z,19.29
2017-02-24T10:48:34.304Z,19.29
2017-02-24T10:49:37.787Z,19.29
2017-02-24T10:50:38.176Z,19.33
2017-02-24T10:51:38.670Z,19.28
2017-02-24T10:52:38.971Z,19.28
2017-02-24T10:53:34.094Z,19.29
2017-02-24T10:54:41.198Z,19.28
2017-02-24T10:55:39.114Z,19.29
2017-02-24T10:56:42.756Z,19.29
2017-02-24T10:57:38.276Z,19.28
2017-02-24T10:58:43.998Z,19.28
2017-02-24T10:59:33.721Z,19.32
2017-02-24T11:00:39.874Z,19.28
2017-02-24T11:01:42.963Z,19.28
2017-02-24T11:02:38.805Z,19.28
2017-02-24T11:03:42.963Z,19.28
2017-02-24T11:04:33.871Z,19.28
2017-02-24T11:05:34.458Z,19.27
2017-02-24T11:06:34.231Z,19.28
2017-02-24T11:07:33.859Z,19.27
2017-02-24T11:08:32.669Z,19.28
2017-02-24T11:09:32.041Z,19.27
2017-02-24T11:10:42.973Z,19.27
2017-02-24T11:11:33.960Z,19.27
2017-02-24T11:12:43.736Z,19.27
2017-02-24T11:13:56.124Z,19.28
2017-02-24T11:14:38.003Z,19.27
2017-02-24T11:15:34.213Z,19.28
2017-02-24T11:16:34.314Z,19.28
2017-02-24T11:17:43.223Z,19.27
2017-02-24T11:18:38.784Z,19.28
2017-02-24T11:19:39.647Z,19.27
2017-02-24T11:20:34.689Z,19.27
2017-02-24T11:21:35.307Z,19.26
2017-02-24T11:22:42.121Z,19.27
2017-02-24T11:23:39.098Z,19.28
2017-02-24T11:24:43.764Z,19.28
2017-02-24T11:25:33.044Z,19.26
2017-02-24T11:26:33.540Z,19.27
2017-02-24T11:27:33.885Z,19.27
2017-02-24T11:28:47.749Z,19.28
2017-02-24T11:29:36.734Z,19.27
2017-02-24T11:30:45.199Z,19.28
2017-02-24T11:31:42.511Z,19.28
2017-02-24T11:32:37.454Z,19.28
2017-02-24T11:33:42.734Z,19.28
2017-02-24T11:34:38.718Z,19.29
2017-02-24T11:35:37.627Z,19.29
2017-02-24T11:36:40.761Z,19.29
2017-02-24T11:37:44.894Z,19.29
2017-02-24T11:38:38.708Z,19.29
2017-02-24T11:39:34.259Z,19.30
2017-02-24T11:40:43.521Z,19.29
2017-02-24T11:41:44.728Z,19.82
2017-02-24T11:42:44.254Z,19.87
2017-02-24T11:43:44.672Z,19.38
2017-02-24T11:44:43.772Z,19.34
2017-02-24T11:45:37.377Z,19.34
2017-02-24T11:46:44.786Z,19.38
2017-02-24T11:47:40.480Z,19.33
2017-02-24T11:48:39.157Z,19.33
2017-02-24T11:49:40.737Z,19.33
2017-02-24T11:50:37.693Z,19.33
2017-02-24T11:51:34.412Z,19.33
2017-02-24T11:52:43.754Z,19.33
2017-02-24T11:53:40.661Z,19.33
2017-02-24T11:54:47.970Z,19.33
2017-02-24T11:55:27.648Z,19.33
2017-02-24T11:56:38.972Z,19.37
2017-02-24T11:57:33.845Z,19.33
2017-02-24T11:58:39.359Z,19.33
2017-02-24T11:59:34.483Z,19.34
2017-02-24T12:00:39.033Z,19.34
2017-02-24T12:01:33.473Z,19.34
2017-02-24T12:02:33.909Z,19.34
2017-02-24T12:03:39.231Z,19.34
2017-02-24T12:04:42.922Z,19.86
2017-02-24T12:05:54.500Z,19.54
2017-02-24T12:06:38.788Z,19.42
2017-02-24T12:07:34.550Z,19.44
2017-02-24T12:08:33.658Z,19.37
2017-02-24T12:09:39.303Z,19.37
2017-02-24T12:10:34.512Z,19.36
2017-02-24T12:11:38.050Z,19.37
2017-02-24T12:12:34.099Z,19.37
2017-02-24T12:13:38.992Z,19.39
2017-02-24T12:14:38.935Z,19.35
2017-02-24T12:15:33.462Z,19.35
2017-02-24T12:16:43.030Z,19.36
2017-02-24T12:17:43.696Z,19.37
2017-02-24T12:18:35.528Z,19.37
2017-02-24T12:19:39.239Z,19.37
2017-02-24T12:20:34.624Z,19.37
2017-02-24T12:21:33.967Z,19.37
2017-02-24T12:22:39.020Z,19.39
2017-02-24T12:23:33.933Z,19.37
2017-02-24T12:24:43.812Z,19.37
2017-02-24T12:25:38.302Z,19.39
2017-02-24T12:26:39.425Z,19.38
2017-02-24T12:27:34.641Z,19.38
2017-02-24T12:28:33.208Z,19.38
2017-02-24T12:29:43.110Z,19.39
2017-02-24T12:30:29.186Z,19.39
2017-02-24T12:31:43.467Z,19.38
2017-02-24T12:32:39.973Z,19.39
2017-02-24T12:33:43.081Z,19.39
2017-02-24T12:34:47.206Z,19.39
2017-02-24T12:35:40.956Z,19.40
2017-02-24T12:36:33.589Z,19.40
2017-02-24T12:37:46.530Z,19.40
2017-02-24T12:38:43.060Z,19.40
2017-02-24T12:39:37.629Z,19.39
2017-02-24T12:40:48.212Z,19.39
2017-02-24T12:41:46.789Z,19.40
2017-02-24T12:42:43.849Z,19.44
2017-02-24T12:43:44.056Z,19.40
2017-02-24T12:44:37.910Z,19.41
2017-02-24T12:45:39.209Z,19.41
2017-02-24T12:46:34.349Z,19.41
2017-02-24T12:47:38.855Z,19.41
2017-02-24T12:48:34.740Z,19.42
2017-02-24T12:49:54.568Z,19.41
2017-02-24T12:50:33.474Z,19.41
2017-02-24T12:51:43.139Z,19.40
2017-02-24T12:52:39.899Z,19.41
2017-02-24T12:53:39.230Z,19.42
2017-02-24T12:54:48.774Z,19.41
2017-02-24T12:55:38.201Z,19.41